Portada
METAR-TAF:

METAR-TAF

Aeroports :

Châteauroux, França

latitud: 46-51N, longitud: 001-43E, altitud: 160 m

Observació

L'informe es va fer fa 10 minuts, a les 20:30 UTC
Vent 3 kt amb direcció variable
Temperatura 17°C
Humitat 68%
Pressió 1017 hPa
Visibilitat 10 km o més

METAR: LFLX 012030Z AUTO VRB03KT 9999 ///TCU 17/11 Q1017 TEMPO FEW050CB

Hora: 22:40 (20:40 UTC)

Pronòstic

L'informe es va fer fa 46 minuts, a les 19:54 UTC
Pronòstic vàlid del 01 a les 19 UTC al 02 a les 24 UTC
Vent 8 kt del Sud
Visibilitat 10 km o més
sense núvols per sota de 1500 mi sense presència de cumulonimbus.
Probabilitat 30% :
Temporalment
l' 01 a les 20 UTC al 01 a les 24 UTC
Escasses núvols a una alçada de 5000 ft, Cumulonimbus.
xàfecs de pluja

TAF: LFLX 011954Z 0119/0224 18008KT CAVOK PROB30 TEMPO 0120/0124 -SHRA FEW050CB

Observacions i pronòstics meteorològics de més de 4000 aeroports (METAR i TAF).

Les estacions disponibles són els punts grocs i vermells al mapa.

Posi el ratolí al punt desitjat per veure el nom de l'estació.

Feu clic per veure les observacions i els pronòstics meteorològics.

Per canviar el mapa: feu clic els botons verds amb una creu de color negre per apropar; al botó verd amb un guió per allunyar la imatge; o en les fletxes verdes per a mapes adjacents.


METAR-TAF: